81.0°F
Current conditions from King Hill
Updated every 5 minutes
 
  Tuesday September 2, 2014

Station Historical Data
Daily Summary for February 4, 2012 Units:  Both    English   Metric
« Previous Day
Next Day »
Daily Weekly Monthly Yearly Custom
  High: Low: Average:
Temperature: 27.2 °F /  -2.7 °C 6.9 °F /  -13.9 °C 19.3 °F /  -7.1 °C
Dew Point: 24.4 °F /  -4.2 °C 2.6 °F /  -16.3 °C 11.9 °F /  -11.2 °C
Humidity: 89% 53% 73%
Wind Speed: 9.0mph /  14.5km/h - 2.9mph /  4.7km/h
Wind Gust: 18.0mph /  29km/h - -
Wind- - West
Pressure: 30.31 in /  1026.3 hPa 30.17 in /  1021.6 hPa -
Precipitation: 0.00 in /  0 mm    
Historical Graphs
 
 
Tabular Data for February 4, 2012
Time Temperature Dew Point Pressure Wind Wind Speed Wind Gust Humidity Daily Rainfall
00:04 26.0 °F /  -3.3 °C 22.1 °F /  -5.5 °C 30.23in /  1023.6hPa Calm     85% 0.00in /  0mm
00:09 25.9 °F /  -3.4 °C 22.0 °F /  -5.6 °C 30.23in /  1023.6hPa Calm     85% 0.00in /  0mm
00:14 25.9 °F /  -3.4 °C 22.0 °F /  -5.6 °C 30.22in /  1023.2hPa Calm     85% 0.00in /  0mm
00:19 25.9 °F /  -3.4 °C 22.0 °F /  -5.6 °C 30.22in /  1023.2hPa Calm     85% 0.00in /  0mm
00:24 25.9 °F /  -3.4 °C 22.0 °F /  -5.6 °C 30.22in /  1023.2hPa Calm     85% 0.00in /  0mm
00:29 26.0 °F /  -3.3 °C 22.4 °F /  -5.3 °C 30.22in /  1023.2hPa Calm     86% 0.00in /  0mm
00:34 26.0 °F /  -3.3 °C 22.4 °F /  -5.3 °C 30.21in /  1022.9hPa Calm   1.0mph /  1.6km/h 86% 0.00in /  0mm
00:39 26.3 °F /  -3.2 °C 22.7 °F /  -5.2 °C 30.21in /  1022.9hPa Calm   1.0mph /  1.6km/h 86% 0.00in /  0mm
00:44 26.3 °F /  -3.2 °C 22.7 °F /  -5.2 °C 30.21in /  1022.9hPa Calm     86% 0.00in /  0mm
00:49 26.2 °F /  -3.2 °C 22.6 °F /  -5.2 °C 30.21in /  1022.9hPa Calm     86% 0.00in /  0mm
00:54 26.2 °F /  -3.2 °C 22.9 °F /  -5.1 °C 30.21in /  1022.9hPa Calm     87% 0.00in /  0mm
00:59 26.2 °F /  -3.2 °C 22.9 °F /  -5.1 °C 30.21in /  1022.9hPa Calm     87% 0.00in /  0mm
01:04 26.2 °F /  -3.2 °C 22.9 °F /  -5.1 °C 30.21in /  1022.9hPa Calm     87% 0.00in /  0mm
01:09 26.2 °F /  -3.2 °C 22.9 °F /  -5.1 °C 30.21in /  1022.9hPa Calm   1.0mph /  1.6km/h 87% 0.00in /  0mm
01:14 26.2 °F /  -3.2 °C 22.9 °F /  -5.1 °C 30.21in /  1022.9hPa Calm   2.0mph /  3.2km/h 87% 0.00in /  0mm
01:19 26.2 °F /  -3.2 °C 22.9 °F /  -5.1 °C 30.21in /  1022.9hPa SW 1.0mph /  1.6km/h 2.0mph /  3.2km/h 87% 0.00in /  0mm
01:24 26.3 °F /  -3.2 °C 23.0 °F /  -5 °C 30.20in /  1022.6hPa SW 1.0mph /  1.6km/h 2.0mph /  3.2km/h 87% 0.00in /  0mm
01:29 26.4 °F /  -3.1 °C 23.1 °F /  -4.9 °C 30.20in /  1022.6hPa Calm   2.0mph /  3.2km/h 87% 0.00in /  0mm
01:34 26.5 °F /  -3.1 °C 23.2 °F /  -4.9 °C 30.20in /  1022.6hPa Calm   1.0mph /  1.6km/h 87% 0.00in /  0mm
01:39 26.5 °F /  -3.1 °C 23.2 °F /  -4.9 °C 30.21in /  1022.9hPa Calm   2.0mph /  3.2km/h 87% 0.00in /  0mm
01:44 26.5 °F /  -3.1 °C 23.2 °F /  -4.9 °C 30.20in /  1022.6hPa SW 1.0mph /  1.6km/h 3.0mph /  4.8km/h 87% 0.00in /  0mm
01:49 26.6 °F /  -3 °C 23.3 °F /  -4.8 °C 30.20in /  1022.6hPa Calm   3.0mph /  4.8km/h 87% 0.00in /  0mm
01:54 26.7 °F /  -2.9 °C 23.6 °F /  -4.7 °C 30.21in /  1022.9hPa SW 1.0mph /  1.6km/h 2.0mph /  3.2km/h 88% 0.00in /  0mm
01:59 26.7 °F /  -2.9 °C 23.6 °F /  -4.7 °C 30.21in /  1022.9hPa Calm   2.0mph /  3.2km/h 88% 0.00in /  0mm
02:04 26.7 °F /  -2.9 °C 23.6 °F /  -4.7 °C 30.21in /  1022.9hPa SW 1.0mph /  1.6km/h 2.0mph /  3.2km/h 88% 0.00in /  0mm
02:09 26.6 °F /  -3 °C 23.5 °F /  -4.7 °C 30.21in /  1022.9hPa Calm   2.0mph /  3.2km/h 88% 0.00in /  0mm
02:14 26.7 °F /  -2.9 °C 23.6 °F /  -4.7 °C 30.21in /  1022.9hPa Calm   1.0mph /  1.6km/h 88% 0.00in /  0mm
02:19 26.8 °F /  -2.9 °C 23.7 °F /  -4.6 °C 30.21in /  1022.9hPa SW 1.0mph /  1.6km/h 3.0mph /  4.8km/h 88% 0.00in /  0mm
02:24 26.8 °F /  -2.9 °C 23.7 °F /  -4.6 °C 30.22in /  1023.2hPa SW 1.0mph /  1.6km/h 3.0mph /  4.8km/h 88% 0.00in /  0mm
02:29 26.9 °F /  -2.8 °C 23.8 °F /  -4.6 °C 30.22in /  1023.2hPa Calm   2.0mph /  3.2km/h 88% 0.00in /  0mm
02:34 26.9 °F /  -2.8 °C 23.8 °F /  -4.6 °C 30.22in /  1023.2hPa Calm   2.0mph /  3.2km/h 88% 0.00in /  0mm
02:40 26.9 °F /  -2.8 °C 23.8 °F /  -4.6 °C 30.22in /  1023.2hPa WNW 3.0mph /  4.8km/h 6.0mph /  9.7km/h 88% 0.00in /  0mm
02:49 27.2 °F /  -2.7 °C 24.4 °F /  -4.2 °C 30.22in /  1023.2hPa WNW 4.0mph /  6.4km/h 8.0mph /  12.9km/h 89% 0.00in /  0mm
02:54 27.2 °F /  -2.7 °C 24.1 °F /  -4.4 °C 30.21in /  1022.9hPa WNW 3.0mph /  4.8km/h 7.0mph /  11.3km/h 88% 0.00in /  0mm
02:59 27.2 °F /  -2.7 °C 24.1 °F /  -4.4 °C 30.21in /  1022.9hPa WNW 1.0mph /  1.6km/h 5.0mph /  8km/h 88% 0.00in /  0mm
03:04 27.2 °F /  -2.7 °C 24.1 °F /  -4.4 °C 30.21in /  1022.9hPa WNW 2.0mph /  3.2km/h 5.0mph /  8km/h 88% 0.00in /  0mm
03:09 27.2 °F /  -2.7 °C 24.1 °F /  -4.4 °C 30.20in /  1022.6hPa NW 1.0mph /  1.6km/h 5.0mph /  8km/h 88% 0.00in /  0mm
03:14 27.2 °F /  -2.7 °C 24.1 °F /  -4.4 °C 30.21in /  1022.9hPa NW 2.0mph /  3.2km/h 4.0mph /  6.4km/h 88% 0.00in /  0mm
03:19 27.0 °F /  -2.8 °C 23.9 °F /  -4.5 °C 30.21in /  1022.9hPa WNW 8.0mph /  12.9km/h 16.0mph /  25.7km/h 88% 0.00in /  0mm
03:29 26.2 °F /  -3.2 °C 23.1 °F /  -4.9 °C 30.21in /  1022.9hPa NW 3.0mph /  4.8km/h 11.0mph /  17.7km/h 88% 0.00in /  0mm
03:34 25.9 °F /  -3.4 °C 22.8 °F /  -5.1 °C 30.21in /  1022.9hPa NNW 8.0mph /  12.9km/h 16.0mph /  25.7km/h 88% 0.00in /  0mm
03:39 25.6 °F /  -3.6 °C 22.5 °F /  -5.3 °C 30.22in /  1023.2hPa NNW 7.0mph /  11.3km/h 16.0mph /  25.7km/h 88% 0.00in /  0mm
03:44 25.2 °F /  -3.8 °C 21.9 °F /  -5.6 °C 30.22in /  1023.2hPa NNW 4.0mph /  6.4km/h 14.0mph /  22.5km/h 87% 0.00in /  0mm
03:49 24.8 °F /  -4 °C 21.5 °F /  -5.8 °C 30.23in /  1023.6hPa NNW 5.0mph /  8km/h 12.0mph /  19.3km/h 87% 0.00in /  0mm
03:54 24.6 °F /  -4.1 °C 21.3 °F /  -5.9 °C 30.22in /  1023.2hPa NNW 3.0mph /  4.8km/h 12.0mph /  19.3km/h 87% 0.00in /  0mm
03:59 24.5 °F /  -4.2 °C 21.2 °F /  -6 °C 30.22in /  1023.2hPa NNW 3.0mph /  4.8km/h 8.0mph /  12.9km/h 87% 0.00in /  0mm
04:04 24.3 °F /  -4.3 °C 21.0 °F /  -6.1 °C 30.23in /  1023.6hPa North 6.0mph /  9.7km/h 15.0mph /  24.1km/h 87% 0.00in /  0mm
04:09 23.6 °F /  -4.7 °C 20.0 °F /  -6.7 °C 30.23in /  1023.6hPa NNW 6.0mph /  9.7km/h 15.0mph /  24.1km/h 86% 0.00in /  0mm
04:14 23.1 °F /  -4.9 °C 19.3 °F /  -7.1 °C 30.24in /  1023.9hPa North 3.0mph /  4.8km/h 14.0mph /  22.5km/h 85% 0.00in /  0mm
04:19 22.7 °F /  -5.2 °C 18.9 °F /  -7.3 °C 30.24in /  1023.9hPa NNW 4.0mph /  6.4km/h 10.0mph /  16.1km/h 85% 0.00in /  0mm
04:24 22.4 °F /  -5.3 °C 18.3 °F /  -7.6 °C 30.23in /  1023.6hPa NNW 3.0mph /  4.8km/h 10.0mph /  16.1km/h 84% 0.00in /  0mm
04:29 22.1 °F /  -5.5 °C 18.0 °F /  -7.8 °C 30.23in /  1023.6hPa North 3.0mph /  4.8km/h 14.0mph /  22.5km/h 84% 0.00in /  0mm
04:34 21.9 °F /  -5.6 °C 17.8 °F /  -7.9 °C 30.24in /  1023.9hPa NW 1.0mph /  1.6km/h 14.0mph /  22.5km/h 84% 0.00in /  0mm
04:39 21.8 °F /  -5.7 °C 17.4 °F /  -8.1 °C 30.24in /  1023.9hPa North 3.0mph /  4.8km/h 7.0mph /  11.3km/h 83% 0.00in /  0mm
04:44 21.7 °F /  -5.7 °C 17.3 °F /  -8.2 °C 30.24in /  1023.9hPa NNW 2.0mph /  3.2km/h 9.0mph /  14.5km/h 83% 0.00in /  0mm
04:54 21.3 °F /  -5.9 °C 16.7 °F /  -8.5 °C 30.24in /  1023.9hPa NNW 4.0mph /  6.4km/h 11.0mph /  17.7km/h 82% 0.00in /  0mm
04:59 21.2 °F /  -6 °C 16.6 °F /  -8.6 °C 30.25in /  1024.3hPa NNW 3.0mph /  4.8km/h 11.0mph /  17.7km/h 82% 0.00in /  0mm
05:04 21.1 °F /  -6.1 °C 16.2 °F /  -8.8 °C 30.25in /  1024.3hPa NNW 3.0mph /  4.8km/h 16.0mph /  25.7km/h 81% 0.00in /  0mm
05:09 21.0 °F /  -6.1 °C 16.1 °F /  -8.8 °C 30.25in /  1024.3hPa NNW 4.0mph /  6.4km/h 16.0mph /  25.7km/h 81% 0.00in /  0mm
05:14 20.9 °F /  -6.2 °C 16.0 °F /  -8.9 °C 30.25in /  1024.3hPa NNW 5.0mph /  8km/h 13.0mph /  20.9km/h 81% 0.00in /  0mm
05:19 20.9 °F /  -6.2 °C 15.7 °F /  -9.1 °C 30.25in /  1024.3hPa NNW 6.0mph /  9.7km/h 11.0mph /  17.7km/h 80% 0.00in /  0mm
05:24 20.7 °F /  -6.3 °C 15.2 °F /  -9.3 °C 30.25in /  1024.3hPa NNW 4.0mph /  6.4km/h 11.0mph /  17.7km/h 79% 0.00in /  0mm
05:29 20.7 °F /  -6.3 °C 15.2 °F /  -9.3 °C 30.25in /  1024.3hPa NNW 6.0mph /  9.7km/h 12.0mph /  19.3km/h 79% 0.00in /  0mm
05:34 20.6 °F /  -6.3 °C 14.8 °F /  -9.6 °C 30.26in /  1024.6hPa NNW 4.0mph /  6.4km/h 12.0mph /  19.3km/h 78% 0.00in /  0mm
05:39 20.5 °F /  -6.4 °C 14.4 °F /  -9.8 °C 30.26in /  1024.6hPa North 4.0mph /  6.4km/h 10.0mph /  16.1km/h 77% 0.00in /  0mm
05:44 20.4 °F /  -6.4 °C 14.3 °F /  -9.8 °C 30.26in /  1024.6hPa NNW 4.0mph /  6.4km/h 10.0mph /  16.1km/h 77% 0.00in /  0mm
05:49 20.3 °F /  -6.5 °C 13.9 °F /  -10.1 °C 30.26in /  1024.6hPa NNW 7.0mph /  11.3km/h 11.0mph /  17.7km/h 76% 0.00in /  0mm
05:54 20.1 °F /  -6.6 °C 13.1 °F /  -10.5 °C 30.26in /  1024.6hPa NNW 8.0mph /  12.9km/h 15.0mph /  24.1km/h 74% 0.00in /  0mm
05:59 20.0 °F /  -6.7 °C 12.7 °F /  -10.7 °C 30.26in /  1024.6hPa NNW 6.0mph /  9.7km/h 18.0mph /  29km/h 73% 0.00in /  0mm
06:04 19.8 °F /  -6.8 °C 12.2 °F /  -11 °C 30.27in /  1024.9hPa NW 9.0mph /  14.5km/h 18.0mph /  29km/h 72% 0.00in /  0mm
06:09 19.7 °F /  -6.8 °C 12.1 °F /  -11.1 °C 30.26in /  1024.6hPa NNW 3.0mph /  4.8km/h 15.0mph /  24.1km/h 72% 0.00in /  0mm
06:14 19.7 °F /  -6.8 °C 12.1 °F /  -11.1 °C 30.26in /  1024.6hPa NNW 6.0mph /  9.7km/h 17.0mph /  27.4km/h 72% 0.00in /  0mm
06:19 19.7 °F /  -6.8 °C 12.1 °F /  -11.1 °C 30.26in /  1024.6hPa NW 6.0mph /  9.7km/h 17.0mph /  27.4km/h 72% 0.00in /  0mm
06:24 19.6 °F /  -6.9 °C 12.0 °F /  -11.1 °C 30.27in /  1024.9hPa NNW 2.0mph /  3.2km/h 15.0mph /  24.1km/h 72% 0.00in /  0mm
06:29 19.5 °F /  -6.9 °C 11.9 °F /  -11.2 °C 30.27in /  1024.9hPa NW 3.0mph /  4.8km/h 15.0mph /  24.1km/h 72% 0.00in /  0mm
06:34 19.3 °F /  -7.1 °C 11.8 °F /  -11.2 °C 30.27in /  1024.9hPa NNW 3.0mph /  4.8km/h 8.0mph /  12.9km/h 72% 0.00in /  0mm
06:39 19.2 °F /  -7.1 °C 11.7 °F /  -11.3 °C 30.27in /  1024.9hPa NW 3.0mph /  4.8km/h 11.0mph /  17.7km/h 72% 0.00in /  0mm
06:44 18.9 °F /  -7.3 °C 11.4 °F /  -11.4 °C 30.28in /  1025.3hPa NNW 6.0mph /  9.7km/h 11.0mph /  17.7km/h 72% 0.00in /  0mm
06:49 18.7 °F /  -7.4 °C 11.5 °F /  -11.4 °C 30.28in /  1025.3hPa NW 5.0mph /  8km/h 11.0mph /  17.7km/h 73% 0.00in /  0mm
06:54 18.6 °F /  -7.4 °C 11.4 °F /  -11.4 °C 30.28in /  1025.3hPa NW 2.0mph /  3.2km/h 11.0mph /  17.7km/h 73% 0.00in /  0mm
06:59 18.5 °F /  -7.5 °C 11.3 °F /  -11.5 °C 30.28in /  1025.3hPa NW 4.0mph /  6.4km/h 9.0mph /  14.5km/h 73% 0.00in /  0mm
07:04 18.4 °F /  -7.6 °C 11.2 °F /  -11.6 °C 30.29in /  1025.6hPa NW 4.0mph /  6.4km/h 9.0mph /  14.5km/h 73% 0.00in /  0mm
07:09 18.3 °F /  -7.6 °C 11.1 °F /  -11.6 °C 30.29in /  1025.6hPa NNW 5.0mph /  8km/h 14.0mph /  22.5km/h 73% 0.00in /  0mm
07:14 18.2 °F /  -7.7 °C 11.0 °F /  -11.7 °C 30.28in /  1025.3hPa NNW 4.0mph /  6.4km/h 14.0mph /  22.5km/h 73% 0.00in /  0mm
07:19 18.1 °F /  -7.7 °C 10.9 °F /  -11.7 °C 30.28in /  1025.3hPa NW 5.0mph /  8km/h 10.0mph /  16.1km/h 73% 0.00in /  0mm
07:24 17.9 °F /  -7.8 °C 11.0 °F /  -11.7 °C 30.28in /  1025.3hPa NNW 2.0mph /  3.2km/h 10.0mph /  16.1km/h 74% 0.00in /  0mm
07:29 17.8 °F /  -7.9 °C 10.6 °F /  -11.9 °C 30.28in /  1025.3hPa NW 5.0mph /  8km/h 14.0mph /  22.5km/h 73% 0.00in /  0mm
07:34 17.6 °F /  -8 °C 10.7 °F /  -11.8 °C 30.28in /  1025.3hPa NW 6.0mph /  9.7km/h 14.0mph /  22.5km/h 74% 0.00in /  0mm
07:39 17.6 °F /  -8 °C 10.7 °F /  -11.8 °C 30.29in /  1025.6hPa NNW 5.0mph /  8km/h 13.0mph /  20.9km/h 74% 0.00in /  0mm
07:44 17.5 °F /  -8.1 °C 10.6 °F /  -11.9 °C 30.28in /  1025.3hPa NNW 3.0mph /  4.8km/h 10.0mph /  16.1km/h 74% 0.00in /  0mm
07:49 17.4 °F /  -8.1 °C 10.5 °F /  -11.9 °C 30.28in /  1025.3hPa NW 4.0mph /  6.4km/h 10.0mph /  16.1km/h 74% 0.00in /  0mm
07:54 17.3 °F /  -8.2 °C 10.4 °F /  -12 °C 30.29in /  1025.6hPa NW 6.0mph /  9.7km/h 11.0mph /  17.7km/h 74% 0.00in /  0mm
07:59 17.3 °F /  -8.2 °C 10.7 °F /  -11.8 °C 30.29in /  1025.6hPa NNW 4.0mph /  6.4km/h 11.0mph /  17.7km/h 75% 0.00in /  0mm
08:04 17.4 °F /  -8.1 °C 10.8 °F /  -11.8 °C 30.29in /  1025.6hPa NW 2.0mph /  3.2km/h 10.0mph /  16.1km/h 75% 0.00in /  0mm
08:09 17.4 °F /  -8.1 °C 10.8 °F /  -11.8 °C 30.29in /  1025.6hPa WNW 2.0mph /  3.2km/h 8.0mph /  12.9km/h 75% 0.00in /  0mm
08:14 17.5 °F /  -8.1 °C 10.9 °F /  -11.7 °C 30.30in /  1026hPa WNW 3.0mph /  4.8km/h 9.0mph /  14.5km/h 75% 0.00in /  0mm
08:20 17.5 °F /  -8.1 °C 10.9 °F /  -11.7 °C 30.30in /  1026hPa NW 3.0mph /  4.8km/h 10.0mph /  16.1km/h 75% 0.00in /  0mm
08:29 17.5 °F /  -8.1 °C 10.9 °F /  -11.7 °C 30.30in /  1026hPa WNW 2.0mph /  3.2km/h 9.0mph /  14.5km/h 75% 0.00in /  0mm
08:34 17.6 °F /  -8 °C 11.0 °F /  -11.7 °C 30.30in /  1026hPa NNW 3.0mph /  4.8km/h 7.0mph /  11.3km/h 75% 0.00in /  0mm
08:39 17.6 °F /  -8 °C 10.7 °F /  -11.8 °C 30.30in /  1026hPa NW 3.0mph /  4.8km/h 9.0mph /  14.5km/h 74% 0.00in /  0mm
08:44 17.5 °F /  -8.1 °C 10.6 °F /  -11.9 °C 30.30in /  1026hPa NW 2.0mph /  3.2km/h 11.0mph /  17.7km/h 74% 0.00in /  0mm
08:49 17.8 °F /  -7.9 °C 10.9 °F /  -11.7 °C 30.30in /  1026hPa NW 3.0mph /  4.8km/h 11.0mph /  17.7km/h 74% 0.00in /  0mm
08:54 18.0 °F /  -7.8 °C 11.1 °F /  -11.6 °C 30.30in /  1026hPa NW 3.0mph /  4.8km/h 7.0mph /  11.3km/h 74% 0.00in /  0mm
08:59 18.1 °F /  -7.7 °C 10.6 °F /  -11.9 °C 30.30in /  1026hPa NNW 5.0mph /  8km/h 15.0mph /  24.1km/h 72% 0.00in /  0mm
09:04 18.4 °F /  -7.6 °C 10.9 °F /  -11.7 °C 30.31in /  1026.3hPa NNW 6.0mph /  9.7km/h 15.0mph /  24.1km/h 72% 0.00in /  0mm
09:09 18.8 °F /  -7.3 °C 11.0 °F /  -11.7 °C 30.31in /  1026.3hPa NW 6.0mph /  9.7km/h 13.0mph /  20.9km/h 71% 0.00in /  0mm
09:14 18.5 °F /  -7.5 °C 10.7 °F /  -11.8 °C 30.31in /  1026.3hPa NW 4.0mph /  6.4km/h 13.0mph /  20.9km/h 71% 0.00in /  0mm
09:19 18.3 °F /  -7.6 °C 10.5 °F /  -11.9 °C 30.31in /  1026.3hPa NW 5.0mph /  8km/h 12.0mph /  19.3km/h 71% 0.00in /  0mm
09:24 18.4 °F /  -7.6 °C 10.9 °F /  -11.7 °C 30.30in /  1026hPa North 3.0mph /  4.8km/h 12.0mph /  19.3km/h 72% 0.00in /  0mm
09:29 18.8 °F /  -7.3 °C 11.3 °F /  -11.5 °C 30.30in /  1026hPa NNW 2.0mph /  3.2km/h 7.0mph /  11.3km/h 72% 0.00in /  0mm
09:34 19.7 °F /  -6.8 °C 11.8 °F /  -11.2 °C 30.30in /  1026hPa NNW 3.0mph /  4.8km/h 7.0mph /  11.3km/h 71% 0.00in /  0mm
09:39 19.8 °F /  -6.8 °C 11.6 °F /  -11.3 °C 30.29in /  1025.6hPa NW 3.0mph /  4.8km/h 8.0mph /  12.9km/h 70% 0.00in /  0mm
09:44 19.9 °F /  -6.7 °C 11.4 °F /  -11.4 °C 30.30in /  1026hPa NNW 3.0mph /  4.8km/h 10.0mph /  16.1km/h 69% 0.00in /  0mm
09:49 19.8 °F /  -6.8 °C 10.9 °F /  -11.7 °C 30.29in /  1025.6hPa NW 6.0mph /  9.7km/h 10.0mph /  16.1km/h 68% 0.00in /  0mm
09:54 19.5 °F /  -6.9 °C 11.0 °F /  -11.7 °C 30.29in /  1025.6hPa NW 4.0mph /  6.4km/h 10.0mph /  16.1km/h 69% 0.00in /  0mm
09:59 19.7 °F /  -6.8 °C 11.2 °F /  -11.6 °C 30.29in /  1025.6hPa NW 4.0mph /  6.4km/h 9.0mph /  14.5km/h 69% 0.00in /  0mm
10:04 19.7 °F /  -6.8 °C 10.9 °F /  -11.7 °C 30.29in /  1025.6hPa NW 4.0mph /  6.4km/h 9.0mph /  14.5km/h 68% 0.00in /  0mm
10:09 19.6 °F /  -6.9 °C 10.8 °F /  -11.8 °C 30.29in /  1025.6hPa NW 5.0mph /  8km/h 11.0mph /  17.7km/h 68% 0.00in /  0mm
10:14 19.7 °F /  -6.8 °C 10.9 °F /  -11.7 °C 30.29in /  1025.6hPa NW 4.0mph /  6.4km/h 11.0mph /  17.7km/h 68% 0.00in /  0mm
10:19 19.9 °F /  -6.7 °C 11.0 °F /  -11.7 °C 30.28in /  1025.3hPa NNE 2.0mph /  3.2km/h 7.0mph /  11.3km/h 68% 0.00in /  0mm
10:24 20.4 °F /  -6.4 °C 11.2 °F /  -11.6 °C 30.28in /  1025.3hPa Calm   7.0mph /  11.3km/h 67% 0.00in /  0mm
10:29 21.0 °F /  -6.1 °C 11.8 °F /  -11.2 °C 30.28in /  1025.3hPa Calm   5.0mph /  8km/h 67% 0.00in /  0mm
10:34 21.5 °F /  -5.8 °C 11.2 °F /  -11.6 °C 30.28in /  1025.3hPa NW 4.0mph /  6.4km/h 8.0mph /  12.9km/h 64% 0.00in /  0mm
10:39 20.6 °F /  -6.3 °C 10.4 °F /  -12 °C 30.28in /  1025.3hPa NW 3.0mph /  4.8km/h 8.0mph /  12.9km/h 64% 0.00in /  0mm
10:49 21.2 °F /  -6 °C 10.6 °F /  -11.9 °C 30.28in /  1025.3hPa NNW 2.0mph /  3.2km/h 8.0mph /  12.9km/h 63% 0.00in /  0mm
10:59 21.8 °F /  -5.7 °C 10.8 °F /  -11.8 °C 30.28in /  1025.3hPa NNW 1.0mph /  1.6km/h 6.0mph /  9.7km/h 62% 0.00in /  0mm
11:04 22.3 °F /  -5.4 °C 10.5 °F /  -11.9 °C 30.28in /  1025.3hPa NNW 2.0mph /  3.2km/h 6.0mph /  9.7km/h 60% 0.00in /  0mm
11:09 21.9 °F /  -5.6 °C 10.1 °F /  -12.2 °C 30.28in /  1025.3hPa North 1.0mph /  1.6km/h 6.0mph /  9.7km/h 60% 0.00in /  0mm
11:14 21.3 °F /  -5.9 °C 9.9 °F /  -12.3 °C 30.27in /  1024.9hPa NNW 1.0mph /  1.6km/h 7.0mph /  11.3km/h 61% 0.00in /  0mm
11:19 21.1 °F /  -6.1 °C 10.5 °F /  -11.9 °C 30.27in /  1024.9hPa NW 2.0mph /  3.2km/h 7.0mph /  11.3km/h 63% 0.00in /  0mm
11:29 22.1 °F /  -5.5 °C 11.1 °F /  -11.6 °C 30.27in /  1024.9hPa North 2.0mph /  3.2km/h 7.0mph /  11.3km/h 62% 0.00in /  0mm
11:34 22.5 °F /  -5.3 °C 10.3 °F /  -12.1 °C 30.27in /  1024.9hPa NNW 2.0mph /  3.2km/h 7.0mph /  11.3km/h 59% 0.00in /  0mm
11:39 22.2 °F /  -5.4 °C 10.4 °F /  -12 °C 30.27in /  1024.9hPa NW 2.0mph /  3.2km/h 7.0mph /  11.3km/h 60% 0.00in /  0mm
11:44 22.5 °F /  -5.3 °C 10.3 °F /  -12.1 °C 30.26in /  1024.6hPa North 2.0mph /  3.2km/h 6.0mph /  9.7km/h 59% 0.00in /  0mm
11:49 22.5 °F /  -5.3 °C 10.3 °F /  -12.1 °C 30.26in /  1024.6hPa NNW 2.0mph /  3.2km/h 8.0mph /  12.9km/h 59% 0.00in /  0mm
11:54 22.5 °F /  -5.3 °C 10.3 °F /  -12.1 °C 30.26in /  1024.6hPa NNE 1.0mph /  1.6km/h 8.0mph /  12.9km/h 59% 0.00in /  0mm
11:59 22.9 °F /  -5.1 °C 10.7 °F /  -11.8 °C 30.25in /  1024.3hPa NW 1.0mph /  1.6km/h 6.0mph /  9.7km/h 59% 0.00in /  0mm
12:04 23.2 °F /  -4.9 °C 11.4 °F /  -11.4 °C 30.25in /  1024.3hPa Calm   4.0mph /  6.4km/h 60% 0.00in /  0mm
12:09 22.7 °F /  -5.2 °C 10.5 °F /  -11.9 °C 30.25in /  1024.3hPa WNW 1.0mph /  1.6km/h 5.0mph /  8km/h 59% 0.00in /  0mm
12:14 22.3 °F /  -5.4 °C 10.5 °F /  -11.9 °C 30.25in /  1024.3hPa NW 2.0mph /  3.2km/h 6.0mph /  9.7km/h 60% 0.00in /  0mm
12:19 22.2 °F /  -5.4 °C 10.0 °F /  -12.2 °C 30.25in /  1024.3hPa West 3.0mph /  4.8km/h 6.0mph /  9.7km/h 59% 0.00in /  0mm
12:24 22.4 °F /  -5.3 °C 10.6 °F /  -11.9 °C 30.25in /  1024.3hPa NW 1.0mph /  1.6km/h 6.0mph /  9.7km/h 60% 0.00in /  0mm
12:29 22.8 °F /  -5.1 °C 10.6 °F /  -11.9 °C 30.24in /  1023.9hPa NW 1.0mph /  1.6km/h 6.0mph /  9.7km/h 59% 0.00in /  0mm
12:34 22.8 °F /  -5.1 °C 10.2 °F /  -12.1 °C 30.24in /  1023.9hPa NW 2.0mph /  3.2km/h 7.0mph /  11.3km/h 58% 0.00in /  0mm
12:39 22.9 °F /  -5.1 °C 10.3 °F /  -12.1 °C 30.24in /  1023.9hPa NW 1.0mph /  1.6km/h 7.0mph /  11.3km/h 58% 0.00in /  0mm
12:44 23.1 °F /  -4.9 °C 10.9 °F /  -11.7 °C 30.23in /  1023.6hPa NW 1.0mph /  1.6km/h 4.0mph /  6.4km/h 59% 0.00in /  0mm
12:49 23.2 °F /  -4.9 °C 11.0 °F /  -11.7 °C 30.23in /  1023.6hPa Calm   4.0mph /  6.4km/h 59% 0.00in /  0mm
12:54 23.6 °F /  -4.7 °C 11.0 °F /  -11.7 °C 30.23in /  1023.6hPa North 2.0mph /  3.2km/h 5.0mph /  8km/h 58% 0.00in /  0mm
12:59 23.9 °F /  -4.5 °C 11.3 °F /  -11.5 °C 30.22in /  1023.2hPa NNE 1.0mph /  1.6km/h 7.0mph /  11.3km/h 58% 0.00in /  0mm
13:04 24.2 °F /  -4.3 °C 10.8 °F /  -11.8 °C 30.22in /  1023.2hPa Calm   7.0mph /  11.3km/h 56% 0.00in /  0mm
13:09 23.5 °F /  -4.7 °C 10.5 °F /  -11.9 °C 30.22in /  1023.2hPa NE 1.0mph /  1.6km/h 4.0mph /  6.4km/h 57% 0.00in /  0mm
13:14 23.7 °F /  -4.6 °C 11.5 °F /  -11.4 °C 30.22in /  1023.2hPa Calm   4.0mph /  6.4km/h 59% 0.00in /  0mm
13:19 24.1 °F /  -4.4 °C 11.1 °F /  -11.6 °C 30.22in /  1023.2hPa NNE 1.0mph /  1.6km/h 5.0mph /  8km/h 57% 0.00in /  0mm
13:24 24.2 °F /  -4.3 °C 10.8 °F /  -11.8 °C 30.22in /  1023.2hPa Calm   5.0mph /  8km/h 56% 0.00in /  0mm
13:29 24.3 °F /  -4.3 °C 10.9 °F /  -11.7 °C 30.21in /  1022.9hPa Calm   3.0mph /  4.8km/h 56% 0.00in /  0mm
13:34 24.4 °F /  -4.2 °C 10.9 °F /  -11.7 °C 30.21in /  1022.9hPa Calm   3.0mph /  4.8km/h 56% 0.00in /  0mm
13:39 24.3 °F /  -4.3 °C 10.9 °F /  -11.7 °C 30.21in /  1022.9hPa WNW 1.0mph /  1.6km/h 6.0mph /  9.7km/h 56% 0.00in /  0mm
13:44 24.4 °F /  -4.2 °C 10.9 °F /  -11.7 °C 30.21in /  1022.9hPa Calm   6.0mph /  9.7km/h 56% 0.00in /  0mm
13:49 24.9 °F /  -3.9 °C 11.4 °F /  -11.4 °C 30.21in /  1022.9hPa NW 1.0mph /  1.6km/h 6.0mph /  9.7km/h 56% 0.00in /  0mm
13:54 25.0 °F /  -3.9 °C 11.1 °F /  -11.6 °C 30.20in /  1022.6hPa NW 2.0mph /  3.2km/h 6.0mph /  9.7km/h 55% 0.00in /  0mm
13:59 24.3 °F /  -4.3 °C 10.4 °F /  -12 °C 30.20in /  1022.6hPa NW 3.0mph /  4.8km/h 9.0mph /  14.5km/h 55% 0.00in /  0mm
14:04 23.7 °F /  -4.6 °C 10.7 °F /  -11.8 °C 30.20in /  1022.6hPa WNW 3.0mph /  4.8km/h 9.0mph /  14.5km/h 57% 0.00in /  0mm
14:09 23.8 °F /  -4.6 °C 10.8 °F /  -11.8 °C 30.20in /  1022.6hPa WNW 1.0mph /  1.6km/h 6.0mph /  9.7km/h 57% 0.00in /  0mm
14:14 24.5 °F /  -4.2 °C 11.0 °F /  -11.7 °C 30.20in /  1022.6hPa Calm   5.0mph /  8km/h 56% 0.00in /  0mm
14:19 24.9 °F /  -3.9 °C 11.4 °F /  -11.4 °C 30.20in /  1022.6hPa WNW 1.0mph /  1.6km/h 7.0mph /  11.3km/h 56% 0.00in /  0mm
14:25 24.9 °F /  -3.9 °C 10.6 °F /  -11.9 °C 30.19in /  1022.2hPa NW 3.0mph /  4.8km/h 8.0mph /  12.9km/h 54% 0.00in /  0mm
14:34 25.2 °F /  -3.8 °C 11.3 °F /  -11.5 °C 30.19in /  1022.2hPa NW 1.0mph /  1.6km/h 6.0mph /  9.7km/h 55% 0.00in /  0mm
14:39 25.0 °F /  -3.9 °C 11.1 °F /  -11.6 °C 30.19in /  1022.2hPa NNE 1.0mph /  1.6km/h 6.0mph /  9.7km/h 55% 0.00in /  0mm
14:44 25.1 °F /  -3.8 °C 11.2 °F /  -11.6 °C 30.19in /  1022.2hPa North 2.0mph /  3.2km/h 8.0mph /  12.9km/h 55% 0.00in /  0mm
14:49 25.1 °F /  -3.8 °C 11.2 °F /  -11.6 °C 30.19in /  1022.2hPa NNE 1.0mph /  1.6km/h 8.0mph /  12.9km/h 55% 0.00in /  0mm
14:54 25.4 °F /  -3.7 °C 11.1 °F /  -11.6 °C 30.19in /  1022.2hPa North 1.0mph /  1.6km/h 4.0mph /  6.4km/h 54% 0.00in /  0mm
14:59 25.7 °F /  -3.5 °C 10.9 °F /  -11.7 °C 30.19in /  1022.2hPa North 1.0mph /  1.6km/h 4.0mph /  6.4km/h 53% 0.00in /  0mm
15:04 25.8 °F /  -3.4 °C 11.0 °F /  -11.7 °C 30.19in /  1022.2hPa Calm   5.0mph /  8km/h 53% 0.00in /  0mm
15:09 25.7 °F /  -3.5 °C 10.9 °F /  -11.7 °C 30.19in /  1022.2hPa NNW 2.0mph /  3.2km/h 6.0mph /  9.7km/h 53% 0.00in /  0mm
15:14 25.6 °F /  -3.6 °C 10.8 °F /  -11.8 °C 30.19in /  1022.2hPa Calm   6.0mph /  9.7km/h 53% 0.00in /  0mm
15:19 25.3 °F /  -3.7 °C 11.0 °F /  -11.7 °C 30.19in /  1022.2hPa Calm   4.0mph /  6.4km/h 54% 0.00in /  0mm
15:24 25.3 °F /  -3.7 °C 11.0 °F /  -11.7 °C 30.19in /  1022.2hPa Calm   4.0mph /  6.4km/h 54% 0.00in /  0mm
15:29 25.2 °F /  -3.8 °C 10.9 °F /  -11.7 °C 30.19in /  1022.2hPa NNE 2.0mph /  3.2km/h 5.0mph /  8km/h 54% 0.00in /  0mm
15:34 24.8 °F /  -4 °C 10.9 °F /  -11.7 °C 30.19in /  1022.2hPa Calm   6.0mph /  9.7km/h 55% 0.00in /  0mm
15:40 24.9 °F /  -3.9 °C 11.0 °F /  -11.7 °C 30.19in /  1022.2hPa NNE 1.0mph /  1.6km/h 6.0mph /  9.7km/h 55% 0.00in /  0mm
15:49 25.2 °F /  -3.8 °C 10.9 °F /  -11.7 °C 30.19in /  1022.2hPa NNW 2.0mph /  3.2km/h 4.0mph /  6.4km/h 54% 0.00in /  0mm
15:54 24.8 °F /  -4 °C 10.5 °F /  -11.9 °C 30.19in /  1022.2hPa NNW 1.0mph /  1.6km/h 5.0mph /  8km/h 54% 0.00in /  0mm
15:59 24.5 °F /  -4.2 °C 10.6 °F /  -11.9 °C 30.19in /  1022.2hPa Calm   5.0mph /  8km/h 55% 0.00in /  0mm
16:04 24.3 °F /  -4.3 °C 10.4 °F /  -12 °C 30.19in /  1022.2hPa Calm   5.0mph /  8km/h 55% 0.00in /  0mm
16:09 24.2 °F /  -4.3 °C 10.4 °F /  -12 °C 30.19in /  1022.2hPa Calm   5.0mph /  8km/h 55% 0.00in /  0mm
16:14 23.8 °F /  -4.6 °C 10.4 °F /  -12 °C 30.19in /  1022.2hPa Calm   5.0mph /  8km/h 56% 0.00in /  0mm
16:19 23.6 °F /  -4.7 °C 10.2 °F /  -12.1 °C 30.19in /  1022.2hPa Calm   4.0mph /  6.4km/h 56% 0.00in /  0mm
16:24 23.2 °F /  -4.9 °C 10.2 °F /  -12.1 °C 30.19in /  1022.2hPa Calm   3.0mph /  4.8km/h 57% 0.00in /  0mm
16:29 22.7 °F /  -5.2 °C 9.7 °F /  -12.4 °C 30.19in /  1022.2hPa Calm   4.0mph /  6.4km/h 57% 0.00in /  0mm
16:34 22.1 °F /  -5.5 °C 9.6 °F /  -12.4 °C 30.19in /  1022.2hPa NNE 2.0mph /  3.2km/h 5.0mph /  8km/h 58% 0.00in /  0mm
16:39 21.6 °F /  -5.8 °C 9.9 °F /  -12.3 °C 30.19in /  1022.2hPa NNE 1.0mph /  1.6km/h 5.0mph /  8km/h 60% 0.00in /  0mm
16:44 21.2 °F /  -6 °C 9.8 °F /  -12.3 °C 30.19in /  1022.2hPa Calm   4.0mph /  6.4km/h 61% 0.00in /  0mm
16:50 20.5 °F /  -6.4 °C 9.5 °F /  -12.5 °C 30.19in /  1022.2hPa NNE 1.0mph /  1.6km/h 5.0mph /  8km/h 62% 0.00in /  0mm
16:59 19.3 °F /  -7.1 °C 9.1 °F /  -12.7 °C 30.19in /  1022.2hPa NNE 1.0mph /  1.6km/h 3.0mph /  4.8km/h 64% 0.00in /  0mm
17:04 18.7 °F /  -7.4 °C 8.9 °F /  -12.8 °C 30.19in /  1022.2hPa NNE 1.0mph /  1.6km/h 4.0mph /  6.4km/h 65% 0.00in /  0mm
17:09 18.2 °F /  -7.7 °C 8.7 °F /  -12.9 °C 30.19in /  1022.2hPa Calm   4.0mph /  6.4km/h 66% 0.00in /  0mm
17:14 17.9 °F /  -7.8 °C 8.8 °F /  -12.9 °C 30.19in /  1022.2hPa Calm     67% 0.00in /  0mm
17:19 17.5 °F /  -8.1 °C 8.7 °F /  -12.9 °C 30.19in /  1022.2hPa Calm     68% 0.00in /  0mm
17:24 17.2 °F /  -8.2 °C 8.5 °F /  -13.1 °C 30.19in /  1022.2hPa NNE 1.0mph /  1.6km/h 3.0mph /  4.8km/h 68% 0.00in /  0mm
17:29 17.0 °F /  -8.3 °C 8.6 °F /  -13 °C 30.19in /  1022.2hPa Calm   5.0mph /  8km/h 69% 0.00in /  0mm
17:34 16.8 °F /  -8.4 °C 8.4 °F /  -13.1 °C 30.19in /  1022.2hPa NE 2.0mph /  3.2km/h 6.0mph /  9.7km/h 69% 0.00in /  0mm
17:39 16.9 °F /  -8.4 °C 8.8 °F /  -12.9 °C 30.19in /  1022.2hPa Calm   6.0mph /  9.7km/h 70% 0.00in /  0mm
17:44 16.8 °F /  -8.4 °C 8.7 °F /  -12.9 °C 30.19in /  1022.2hPa NE 1.0mph /  1.6km/h 4.0mph /  6.4km/h 70% 0.00in /  0mm
17:49 16.8 °F /  -8.4 °C 8.7 °F /  -12.9 °C 30.20in /  1022.6hPa NNE 1.0mph /  1.6km/h 5.0mph /  8km/h 70% 0.00in /  0mm
17:54 16.6 °F /  -8.6 °C 8.8 °F /  -12.9 °C 30.20in /  1022.6hPa Calm   5.0mph /  8km/h 71% 0.00in /  0mm
17:59 16.3 °F /  -8.7 °C 8.5 °F /  -13.1 °C 30.19in /  1022.2hPa Calm   4.0mph /  6.4km/h 71% 0.00in /  0mm
18:04 16.2 °F /  -8.8 °C 8.8 °F /  -12.9 °C 30.19in /  1022.2hPa Calm   6.0mph /  9.7km/h 72% 0.00in /  0mm
18:09 16.2 °F /  -8.8 °C 8.8 °F /  -12.9 °C 30.19in /  1022.2hPa NNE 1.0mph /  1.6km/h 6.0mph /  9.7km/h 72% 0.00in /  0mm
18:14 16.1 °F /  -8.8 °C 8.4 °F /  -13.1 °C 30.19in /  1022.2hPa NNE 1.0mph /  1.6km/h 4.0mph /  6.4km/h 71% 0.00in /  0mm
18:19 15.9 °F /  -8.9 °C 8.5 °F /  -13.1 °C 30.20in /  1022.6hPa Calm   6.0mph /  9.7km/h 72% 0.00in /  0mm
18:24 15.8 °F /  -9 °C 8.4 °F /  -13.1 °C 30.20in /  1022.6hPa ENE 1.0mph /  1.6km/h 6.0mph /  9.7km/h 72% 0.00in /  0mm
18:29 15.6 °F /  -9.1 °C 8.2 °F /  -13.2 °C 30.20in /  1022.6hPa ENE 1.0mph /  1.6km/h 4.0mph /  6.4km/h 72% 0.00in /  0mm
18:34 15.4 °F /  -9.2 °C 8.3 °F /  -13.2 °C 30.20in /  1022.6hPa ENE 2.0mph /  3.2km/h 5.0mph /  8km/h 73% 0.00in /  0mm
18:39 15.2 °F /  -9.3 °C 8.1 °F /  -13.3 °C 30.20in /  1022.6hPa ENE 1.0mph /  1.6km/h 5.0mph /  8km/h 73% 0.00in /  0mm
18:44 15.2 °F /  -9.3 °C 8.1 °F /  -13.3 °C 30.20in /  1022.6hPa ENE 1.0mph /  1.6km/h 3.0mph /  4.8km/h 73% 0.00in /  0mm
18:49 15.0 °F /  -9.4 °C 7.9 °F /  -13.4 °C 30.20in /  1022.6hPa Calm   3.0mph /  4.8km/h 73% 0.00in /  0mm
18:54 14.7 °F /  -9.6 °C 7.9 °F /  -13.4 °C 30.20in /  1022.6hPa Calm   2.0mph /  3.2km/h 74% 0.00in /  0mm
18:59 14.5 °F /  -9.7 °C 7.7 °F /  -13.5 °C 30.20in /  1022.6hPa Calm     74% 0.00in /  0mm
19:04 14.3 °F /  -9.8 °C 7.5 °F /  -13.6 °C 30.20in /  1022.6hPa Calm   2.0mph /  3.2km/h 74% 0.00in /  0mm
19:09 14.0 °F /  -10 °C 7.5 °F /  -13.6 °C 30.20in /  1022.6hPa Calm   3.0mph /  4.8km/h 75% 0.00in /  0mm
19:14 13.7 °F /  -10.2 °C 7.2 °F /  -13.8 °C 30.20in /  1022.6hPa Calm   3.0mph /  4.8km/h 75% 0.00in /  0mm
19:19 13.4 °F /  -10.3 °C 7.2 °F /  -13.8 °C 30.20in /  1022.6hPa Calm     76% 0.00in /  0mm
19:24 13.1 °F /  -10.5 °C 7.0 °F /  -13.9 °C 30.20in /  1022.6hPa Calm     76% 0.00in /  0mm
19:29 12.7 °F /  -10.7 °C 6.9 °F /  -13.9 °C 30.20in /  1022.6hPa Calm     77% 0.00in /  0mm
19:34 12.5 °F /  -10.8 °C 6.7 °F /  -14.1 °C 30.21in /  1022.9hPa Calm     77% 0.00in /  0mm
19:39 12.5 °F /  -10.8 °C 6.9 °F /  -13.9 °C 30.21in /  1022.9hPa Calm   2.0mph /  3.2km/h 78% 0.00in /  0mm
19:44 12.5 °F /  -10.8 °C 6.9 °F /  -13.9 °C 30.20in /  1022.6hPa Calm   2.0mph /  3.2km/h 78% 0.00in /  0mm
19:49 12.6 °F /  -10.8 °C 7.0 °F /  -13.9 °C 30.20in /  1022.6hPa Calm   2.0mph /  3.2km/h 78% 0.00in /  0mm
19:54 12.4 °F /  -10.9 °C 6.9 °F /  -13.9 °C 30.20in /  1022.6hPa Calm   2.0mph /  3.2km/h 78% 0.00in /  0mm
19:59 12.3 °F /  -10.9 °C 6.8 °F /  -14 °C 30.20in /  1022.6hPa Calm   2.0mph /  3.2km/h 78% 0.00in /  0mm
20:04 11.8 °F /  -11.2 °C 6.3 °F /  -14.3 °C 30.20in /  1022.6hPa Calm   2.0mph /  3.2km/h 78% 0.00in /  0mm
20:09 11.9 °F /  -11.2 °C 6.6 °F /  -14.1 °C 30.20in /  1022.6hPa Calm   2.0mph /  3.2km/h 79% 0.00in /  0mm
20:14 12.0 °F /  -11.1 °C 6.7 °F /  -14.1 °C 30.21in /  1022.9hPa Calm   2.0mph /  3.2km/h 79% 0.00in /  0mm
20:19 12.0 °F /  -11.1 °C 6.7 °F /  -14.1 °C 30.20in /  1022.6hPa Calm     79% 0.00in /  0mm
20:24 11.8 °F /  -11.2 °C 6.5 °F /  -14.2 °C 30.20in /  1022.6hPa Calm     79% 0.00in /  0mm
20:29 11.5 °F /  -11.4 °C 6.3 °F /  -14.3 °C 30.20in /  1022.6hPa Calm     79% 0.00in /  0mm
20:34 11.1 °F /  -11.6 °C 5.9 °F /  -14.5 °C 30.20in /  1022.6hPa Calm     79% 0.00in /  0mm
20:39 10.7 °F /  -11.8 °C 5.5 °F /  -14.7 °C 30.20in /  1022.6hPa Calm     79% 0.00in /  0mm
20:44 10.5 °F /  -11.9 °C 5.6 °F /  -14.7 °C 30.20in /  1022.6hPa Calm     80% 0.00in /  0mm
20:49 10.6 °F /  -11.9 °C 5.9 °F /  -14.5 °C 30.20in /  1022.6hPa Calm     81% 0.00in /  0mm
20:54 9.9 °F /  -12.3 °C 4.7 °F /  -15.2 °C 30.20in /  1022.6hPa Calm     79% 0.00in /  0mm
20:59 9.1 °F /  -12.7 °C 3.9 °F /  -15.6 °C 30.20in /  1022.6hPa Calm     79% 0.00in /  0mm
21:04 8.9 °F /  -12.8 °C 4.0 °F /  -15.6 °C 30.20in /  1022.6hPa Calm     80% 0.00in /  0mm
21:09 8.9 °F /  -12.8 °C 4.3 °F /  -15.4 °C 30.20in /  1022.6hPa Calm     81% 0.00in /  0mm
21:14 9.1 °F /  -12.7 °C 4.5 °F /  -15.3 °C 30.20in /  1022.6hPa Calm     81% 0.00in /  0mm
21:19 8.7 °F /  -12.9 °C 4.1 °F /  -15.5 °C 30.20in /  1022.6hPa Calm     81% 0.00in /  0mm
21:24 8.6 °F /  -13 °C 4.0 °F /  -15.6 °C 30.20in /  1022.6hPa Calm     81% 0.00in /  0mm
21:29 9.1 °F /  -12.7 °C 4.7 °F /  -15.2 °C 30.20in /  1022.6hPa Calm     82% 0.00in /  0mm
21:34 9.4 °F /  -12.6 °C 5.0 °F /  -15 °C 30.20in /  1022.6hPa Calm     82% 0.00in /  0mm
21:39 9.7 °F /  -12.4 °C 5.6 °F /  -14.7 °C 30.19in /  1022.2hPa Calm     83% 0.00in /  0mm
21:44 9.9 °F /  -12.3 °C 5.8 °F /  -14.6 °C 30.20in /  1022.6hPa Calm     83% 0.00in /  0mm
21:49 9.9 °F /  -12.3 °C 5.5 °F /  -14.7 °C 30.20in /  1022.6hPa Calm     82% 0.00in /  0mm
21:54 9.6 °F /  -12.4 °C 5.2 °F /  -14.9 °C 30.20in /  1022.6hPa Calm     82% 0.00in /  0mm
21:59 9.1 °F /  -12.7 °C 4.5 °F /  -15.3 °C 30.20in /  1022.6hPa Calm     81% 0.00in /  0mm
22:04 8.7 °F /  -12.9 °C 4.1 °F /  -15.5 °C 30.20in /  1022.6hPa Calm     81% 0.00in /  0mm
22:09 8.5 °F /  -13.1 °C 3.9 °F /  -15.6 °C 30.19in /  1022.2hPa Calm     81% 0.00in /  0mm
22:14 7.8 °F /  -13.4 °C 3.2 °F /  -16 °C 30.19in /  1022.2hPa Calm     81% 0.00in /  0mm
22:19 7.2 °F /  -13.8 °C 2.6 °F /  -16.3 °C 30.19in /  1022.2hPa Calm     81% 0.00in /  0mm
22:24 7.4 °F /  -13.7 °C 3.1 °F /  -16.1 °C 30.18in /  1021.9hPa Calm     82% 0.00in /  0mm
22:29 7.5 °F /  -13.6 °C 3.2 °F /  -16 °C 30.19in /  1022.2hPa Calm     82% 0.00in /  0mm
22:39 7.4 °F /  -13.7 °C 3.1 °F /  -16.1 °C 30.18in /  1021.9hPa Calm     82% 0.00in /  0mm
22:44 7.3 °F /  -13.7 °C 3.0 °F /  -16.1 °C 30.18in /  1021.9hPa Calm     82% 0.00in /  0mm
22:49 7.2 °F /  -13.8 °C 2.9 °F /  -16.2 °C 30.18in /  1021.9hPa Calm     82% 0.00in /  0mm
22:54 6.9 °F /  -13.9 °C 2.6 °F /  -16.3 °C 30.18in /  1021.9hPa Calm     82% 0.00in /  0mm
22:59 7.3 °F /  -13.7 °C 3.2 °F /  -16 °C 30.18in /  1021.9hPa Calm     83% 0.00in /  0mm
23:04 7.7 °F /  -13.5 °C 3.6 °F /  -15.8 °C 30.18in /  1021.9hPa Calm     83% 0.00in /  0mm
23:09 8.1 °F /  -13.3 °C 4.0 °F /  -15.6 °C 30.18in /  1021.9hPa Calm     83% 0.00in /  0mm
23:14 8.4 °F /  -13.1 °C 4.3 °F /  -15.4 °C 30.17in /  1021.6hPa Calm     83% 0.00in /  0mm
23:19 8.3 °F /  -13.2 °C 4.2 °F /  -15.4 °C 30.17in /  1021.6hPa Calm     83% 0.00in /  0mm
23:24 8.2 °F /  -13.2 °C 4.1 °F /  -15.5 °C 30.17in /  1021.6hPa Calm     83% 0.00in /  0mm
23:29 8.1 °F /  -13.3 °C 4.0 °F /  -15.6 °C 30.17in /  1021.6hPa Calm     83% 0.00in /  0mm
23:34 8.0 °F /  -13.3 °C 3.9 °F /  -15.6 °C 30.17in /  1021.6hPa Calm     83% 0.00in /  0mm
23:39 7.9 °F /  -13.4 °C 3.8 °F /  -15.7 °C 30.18in /  1021.9hPa Calm     83% 0.00in /  0mm
23:44 8.0 °F /  -13.3 °C 3.9 °F /  -15.6 °C 30.17in /  1021.6hPa Calm     83% 0.00in /  0mm
23:49 8.0 °F /  -13.3 °C 3.9 °F /  -15.6 °C 30.17in /  1021.6hPa Calm     83% 0.00in /  0mm
23:54 8.3 °F /  -13.2 °C 4.5 °F /  -15.3 °C 30.17in /  1021.6hPa Calm     84% 0.00in /  0mm
23:59 8.6 °F /  -13 °C 4.8 °F /  -15.1 °C 30.17in /  1021.6hPa Calm     84% 0.00in /  0mm
Westford Weather
Compliments of Weather Underground

 
 
Current Radar Loop:

Copyright © WestfordWeather.net 2007-2014. All rights reserved.